SPST

Details ICAO SPST (TPP)
Name CADETE GUILLERMO DEL CASTILLO PAREDES
Region Peru
Timezone America/Lima (UTC-5.0)
Plans Departing 8
Arriving 9
Stats Elevation 869 ft / 265 m (AMSL)
Location -6.508742° -76.373246°
Runways 1
Magnetic Variation 3.811° W
Sunrise 2018-05-26 11:10:31 UTC / 2018-05-26 06:10:31 Local
Sunset 2018-05-26 22:57:29 UTC / 2018-05-26 17:57:29 Local
Advertisement - Login to hide

Runways

ID Width Length Bearing (true) Bearing (mag) Surface Threshold Offset Overrun Length
17 148 ft / 45 m 8,577 ft / 2,614 m 169.88° 173.69° Asphalt 0 ft / 0 m 255 ft / 78 m
35 148 ft / 45 m 8,577 ft / 2,614 m 349.88° 353.69° Asphalt 0 ft / 0 m 200 ft / 61 m

Map

Weather


0- 5 10 15 20 25 30 35+ Temperature / ° C

Clouds and Precipitation
Forecast for 2018-05-27 00:00 UTC. Updated an hour ago

Ground ~20,000 ft ~40,000 ft Winds

METAR

SPST 270000Z 00000KT 9999 FEW025 26/21 Q1011 RMK BIRD HAZARD RWY 17/35 PP000

TAF

SPST 262300Z 2700/2724 04003KT 9999 FEW020 SCT100 TX32/2719Z TN21/2711Z TEMPO 2712/2714 3000 BR SCT013 BKN060 BECMG 2718/2720 12005KT 9999 SCT015 BKN080

Frequencies

Tower 118.40 MHz TARAPOTO TWR
Approach 118.40 MHz TARAPOTO APP/TWR
Warning: Do not use this data for real-world aviation or navigation. No guarantee of current accuracy is given.